sensor_id;sensor_type;location;lat;lon;timestamp;pressure;altitude;pressure_sealevel;temperature;humidity
17525;BME280;40431;52.198;9.902;2022-12-07T00:00:02;100541.94;;;2.90;100.00
17525;BME280;40431;52.198;9.902;2022-12-07T00:02:32;100545.56;;;2.89;100.00
17525;BME280;40431;52.198;9.902;2022-12-07T00:05:00;100540.28;;;2.86;100.00
17525;BME280;40431;52.198;9.902;2022-12-07T00:07:29;100539.41;;;2.85;100.00
17525;BME280;40431;52.198;9.902;2022-12-07T00:09:57;100545.50;;;2.90;100.00
17525;BME280;40431;52.198;9.902;2022-12-07T00:12:35;100532.97;;;2.91;100.00
17525;BME280;40431;52.198;9.902;2022-12-07T00:15:05;100531.22;;;2.90;100.00
17525;BME280;40431;52.198;9.902;2022-12-07T00:17:33;100526.81;;;2.89;100.00
17525;BME280;40431;52.198;9.902;2022-12-07T00:20:02;100530.25;;;2.92;100.00
17525;BME280;40431;52.198;9.902;2022-12-07T00:22:32;100524.94;;;2.91;100.00
17525;BME280;40431;52.198;9.902;2022-12-07T00:25:04;100522.31;;;2.89;100.00
17525;BME280;40431;52.198;9.902;2022-12-07T00:27:41;100529.38;;;2.92;100.00
17525;BME280;40431;52.198;9.902;2022-12-07T00:30:18;100527.53;;;2.94;100.00
17525;BME280;40431;52.198;9.902;2022-12-07T00:32:50;100525.88;;;2.90;100.00
17525;BME280;40431;52.198;9.902;2022-12-07T00:35:22;100523.16;;;2.91;100.00
17525;BME280;40431;52.198;9.902;2022-12-07T00:38:05;100525.88;;;2.90;100.00
17525;BME280;40431;52.198;9.902;2022-12-07T00:40:57;100521.25;;;2.95;100.00
17525;BME280;40431;52.198;9.902;2022-12-07T00:43:36;100516.81;;;2.94;100.00
17525;BME280;40431;52.198;9.902;2022-12-07T00:46:29;100514.34;;;2.88;100.00
17525;BME280;40431;52.198;9.902;2022-12-07T00:49:21;100514.34;;;2.88;100.00
17525;BME280;40431;52.198;9.902;2022-12-07T00:52:06;100509.91;;;2.87;100.00
17525;BME280;40431;52.198;9.902;2022-12-07T00:54:47;100495.47;;;2.91;100.00
17525;BME280;40431;52.198;9.902;2022-12-07T00:57:16;100498.16;;;2.91;100.00
17525;BME280;40431;52.198;9.902;2022-12-07T00:59:48;100490.03;;;2.94;100.00
17525;BME280;40431;52.198;9.902;2022-12-07T01:02:21;100485.50;;;2.96;100.00
17525;BME280;40431;52.198;9.902;2022-12-07T01:04:53;100488.09;;;2.99;100.00
17525;BME280;40431;52.198;9.902;2022-12-07T01:07:26;100486.25;;;3.01;100.00
17525;BME280;40431;52.198;9.902;2022-12-07T01:09:55;100487.06;;;3.03;100.00
17525;BME280;40431;52.198;9.902;2022-12-07T01:12:23;100484.38;;;3.03;100.00
17525;BME280;40431;52.198;9.902;2022-12-07T01:14:53;100487.13;;;3.01;100.00
17525;BME280;40431;52.198;9.902;2022-12-07T01:17:21;100481.81;;;3.00;100.00
17525;BME280;40431;52.198;9.902;2022-12-07T01:19:59;100493.25;;;3.05;100.00
17525;BME280;40431;52.198;9.902;2022-12-07T01:22:33;100482.56;;;3.05;100.00
17525;BME280;40431;52.198;9.902;2022-12-07T01:25:06;100478.97;;;3.06;100.00
17525;BME280;40431;52.198;9.902;2022-12-07T01:27:35;100483.34;;;3.09;100.00
17525;BME280;40431;52.198;9.902;2022-12-07T01:30:07;100485.09;;;3.10;100.00
17525;BME280;40431;52.198;9.902;2022-12-07T01:32:35;100485.97;;;3.10;100.00
17525;BME280;40431;52.198;9.902;2022-12-07T01:35:04;100479.59;;;3.14;100.00
17525;BME280;40431;52.198;9.902;2022-12-07T01:37:35;100477.00;;;3.11;100.00
17525;BME280;40431;52.198;9.902;2022-12-07T01:40:05;100475.25;;;3.10;100.00
17525;BME280;40431;52.198;9.902;2022-12-07T01:42:34;100473.50;;;3.09;100.00
17525;BME280;40431;52.198;9.902;2022-12-07T01:45:38;100475.34;;;3.07;100.00
17525;BME280;40431;52.198;9.902;2022-12-07T01:48:08;100474.38;;;3.10;100.00
17525;BME280;40431;52.198;9.902;2022-12-07T01:50:38;100468.25;;;3.06;100.00
17525;BME280;40431;52.198;9.902;2022-12-07T01:53:09;100476.34;;;3.03;100.00
17525;BME280;40431;52.198;9.902;2022-12-07T01:55:42;100470.00;;;3.07;100.00
17525;BME280;40431;52.198;9.902;2022-12-07T01:58:12;100470.75;;;3.11;100.00
17525;BME280;40431;52.198;9.902;2022-12-07T02:00:42;100476.16;;;3.09;100.00
17525;BME280;40431;52.198;9.902;2022-12-07T02:03:14;100477.19;;;3.05;100.00
17525;BME280;40431;52.198;9.902;2022-12-07T02:05:44;100473.38;;;3.12;100.00
17525;BME280;40431;52.198;9.902;2022-12-07T02:08:14;100467.22;;;3.10;100.00
17525;BME280;40431;52.198;9.902;2022-12-07T02:10:50;100469.78;;;3.13;100.00
17525;BME280;40431;52.198;9.902;2022-12-07T02:13:21;100474.22;;;3.14;100.00
17525;BME280;40431;52.198;9.902;2022-12-07T02:16:13;100462.59;;;3.15;100.00
17525;BME280;40431;52.198;9.902;2022-12-07T02:21:52;100462.66;;;3.12;100.00
17525;BME280;40431;52.198;9.902;2022-12-07T02:24:36;100455.47;;;3.14;100.00
17525;BME280;40431;52.198;9.902;2022-12-07T02:27:38;100463.44;;;3.16;100.00
17525;BME280;40431;52.198;9.902;2022-12-07T02:30:11;100460.94;;;3.11;100.00
17525;BME280;40431;52.198;9.902;2022-12-07T02:32:51;100455.41;;;3.16;100.00
17525;BME280;40431;52.198;9.902;2022-12-07T02:35:28;100448.16;;;3.20;100.00
17525;BME280;40431;52.198;9.902;2022-12-07T02:38:07;100446.50;;;3.15;100.00
17525;BME280;40431;52.198;9.902;2022-12-07T02:40:41;100436.72;;;3.14;100.00
17525;BME280;40431;52.198;9.902;2022-12-07T02:43:19;100434.16;;;3.11;100.00
17525;BME280;40431;52.198;9.902;2022-12-07T02:45:52;100442.31;;;3.07;100.00
17525;BME280;40431;52.198;9.902;2022-12-07T02:48:23;100445.03;;;3.05;100.00
17525;BME280;40431;52.198;9.902;2022-12-07T02:50:53;100434.31;;;3.05;100.00
17525;BME280;40431;52.198;9.902;2022-12-07T02:53:32;100423.72;;;3.02;100.00
17525;BME280;40431;52.198;9.902;2022-12-07T02:56:11;100435.16;;;3.07;100.00
17525;BME280;40431;52.198;9.902;2022-12-07T02:59:04;100424.53;;;3.04;100.00
17525;BME280;40431;52.198;9.902;2022-12-07T03:01:47;100422.06;;;2.98;100.00
17525;BME280;40431;52.198;9.902;2022-12-07T03:04:36;100419.41;;;2.98;100.00
17525;BME280;40431;52.198;9.902;2022-12-07T03:07:20;100422.06;;;2.98;100.00
17525;BME280;40431;52.198;9.902;2022-12-07T03:10:00;100422.09;;;2.96;100.00
17525;BME280;40431;52.198;9.902;2022-12-07T03:12:34;100428.41;;;2.95;100.00
17525;BME280;40431;52.198;9.902;2022-12-07T03:15:07;100422.16;;;2.95;100.00
17525;BME280;40431;52.198;9.902;2022-12-07T03:17:39;100422.16;;;2.95;100.00
17525;BME280;40431;52.198;9.902;2022-12-07T03:20:12;100427.50;;;2.95;100.00
17525;BME280;40431;52.198;9.902;2022-12-07T03:22:43;100428.41;;;2.95;100.00
17525;BME280;40431;52.198;9.902;2022-12-07T03:25:15;100422.09;;;2.96;100.00
17525;BME280;40431;52.198;9.902;2022-12-07T03:27:52;100422.09;;;2.96;100.00
17525;BME280;40431;52.198;9.902;2022-12-07T03:30:33;100425.75;;;2.94;100.00
17525;BME280;40431;52.198;9.902;2022-12-07T03:33:08;100419.69;;;2.89;100.00
17525;BME280;40431;52.198;9.902;2022-12-07T03:35:40;100411.44;;;2.95;100.00
17525;BME280;40431;52.198;9.902;2022-12-07T03:38:16;100413.31;;;2.93;100.00
17525;BME280;40431;52.198;9.902;2022-12-07T03:41:01;100414.28;;;2.90;100.00
17525;BME280;40431;52.198;9.902;2022-12-07T03:43:42;100401.81;;;2.89;100.00
17525;BME280;40431;52.198;9.902;2022-12-07T03:46:19;100411.44;;;2.95;100.00
17525;BME280;40431;52.198;9.902;2022-12-07T03:48:55;100408.03;;;2.90;100.00
17525;BME280;40431;52.198;9.902;2022-12-07T03:51:33;100414.31;;;2.89;100.00
17525;BME280;40431;52.198;9.902;2022-12-07T03:54:11;100414.28;;;2.90;100.00
17525;BME280;40431;52.198;9.902;2022-12-07T03:56:54;100415.88;;;2.96;100.00
17525;BME280;40431;52.198;9.902;2022-12-07T03:59:24;100409.78;;;2.91;100.00
17525;BME280;40431;52.198;9.902;2022-12-07T04:01:55;100413.31;;;2.93;100.00
17525;BME280;40431;52.198;9.902;2022-12-07T04:04:29;100412.41;;;2.92;100.00
17525;BME280;40431;52.198;9.902;2022-12-07T04:06:58;100418.66;;;2.93;100.00
17525;BME280;40431;52.198;9.902;2022-12-07T04:09:30;100419.47;;;2.95;100.00
17525;BME280;40431;52.198;9.902;2022-12-07T04:12:03;100414.13;;;2.95;100.00
17525;BME280;40431;52.198;9.902;2022-12-07T04:14:36;100415.88;;;2.96;100.00
17525;BME280;40431;52.198;9.902;2022-12-07T04:17:05;100410.69;;;2.90;100.00
17525;BME280;40431;52.198;9.902;2022-12-07T04:19:34;100417.00;;;2.89;100.00
17525;BME280;40431;52.198;9.902;2022-12-07T04:22:02;100415.44;;;2.81;100.00
17525;BME280;40431;52.198;9.902;2022-12-07T04:24:29;100421.69;;;2.80;100.00
17525;BME280;40431;52.198;9.902;2022-12-07T04:26:55;100412.75;;;2.81;100.00
17525;BME280;40431;52.198;9.902;2022-12-07T04:29:22;100416.28;;;2.83;100.00
17525;BME280;40431;52.198;9.902;2022-12-07T04:31:51;100412.63;;;2.86;100.00
17525;BME280;40431;52.198;9.902;2022-12-07T04:34:20;100411.81;;;2.82;100.00
17525;BME280;40431;52.198;9.902;2022-12-07T04:36:54;100417.06;;;2.86;100.00
17525;BME280;40431;52.198;9.902;2022-12-07T04:39:25;100415.03;;;2.94;100.00
17525;BME280;40431;52.198;9.902;2022-12-07T04:41:55;100417.75;;;2.92;100.00
17525;BME280;40431;52.198;9.902;2022-12-07T04:44:26;100416.03;;;2.91;100.00
17525;BME280;40431;52.198;9.902;2022-12-07T04:46:59;100417.88;;;2.89;100.00
17525;BME280;40431;52.198;9.902;2022-12-07T04:49:31;100418.66;;;2.93;100.00
17525;BME280;40431;52.198;9.902;2022-12-07T04:52:05;100414.31;;;2.89;100.00
17525;BME280;40431;52.198;9.902;2022-12-07T04:54:33;100412.50;;;2.89;100.00
17525;BME280;40431;52.198;9.902;2022-12-07T04:57:02;100409.84;;;2.89;100.00
17525;BME280;40431;52.198;9.902;2022-12-07T04:59:30;100404.44;;;2.91;100.00
17525;BME280;40431;52.198;9.902;2022-12-07T05:01:59;100405.16;;;2.96;100.00
17525;BME280;40431;52.198;9.902;2022-12-07T05:04:31;100404.38;;;2.92;100.00
17525;BME280;40431;52.198;9.902;2022-12-07T05:06:59;100403.41;;;2.95;100.00
17525;BME280;40431;52.198;9.902;2022-12-07T05:09:29;100411.34;;;2.98;100.00
17525;BME280;40431;52.198;9.902;2022-12-07T05:11:57;100402.47;;;2.96;100.00
17525;BME280;40431;52.198;9.902;2022-12-07T05:14:26;100411.34;;;2.98;100.00
17525;BME280;40431;52.198;9.902;2022-12-07T05:17:11;100413.31;;;2.93;100.00
17525;BME280;40431;52.198;9.902;2022-12-07T05:19:40;100408.81;;;2.93;100.00
17525;BME280;40431;52.198;9.902;2022-12-07T05:22:10;100402.66;;;2.90;100.00
17525;BME280;40431;52.198;9.902;2022-12-07T05:24:46;100407.94;;;2.93;100.00
17525;BME280;40431;52.198;9.902;2022-12-07T05:27:14;100411.66;;;2.89;100.00
17525;BME280;40431;52.198;9.902;2022-12-07T05:29:40;100398.19;;;2.90;100.00
17525;BME280;40431;52.198;9.902;2022-12-07T05:32:07;100394.56;;;2.93;100.00
17525;BME280;40431;52.198;9.902;2022-12-07T05:34:33;100398.19;;;2.90;100.00
17525;BME280;40431;52.198;9.902;2022-12-07T05:37:00;100390.97;;;2.92;100.00
17525;BME280;40431;52.198;9.902;2022-12-07T05:39:26;100391.19;;;2.86;100.00
17525;BME280;40431;52.198;9.902;2022-12-07T05:41:54;100392.75;;;2.93;100.00
17525;BME280;40431;52.198;9.902;2022-12-07T05:44:39;100397.31;;;2.90;100.00
17525;BME280;40431;52.198;9.902;2022-12-07T05:47:06;100391.16;;;2.88;100.00
17525;BME280;40431;52.198;9.902;2022-12-07T05:49:33;100395.53;;;2.90;100.00
17525;BME280;40431;52.198;9.902;2022-12-07T05:51:59;100391.88;;;2.93;100.00
17525;BME280;40431;52.198;9.902;2022-12-07T05:54:26;100391.88;;;2.93;100.00
17525;BME280;40431;52.198;9.902;2022-12-07T05:56:53;100386.72;;;2.87;100.00
17525;BME280;40431;52.198;9.902;2022-12-07T05:59:21;100391.16;;;2.88;100.00
17525;BME280;40431;52.198;9.902;2022-12-07T06:01:51;100395.59;;;2.87;100.00
17525;BME280;40431;52.198;9.902;2022-12-07T06:04:19;100388.56;;;2.84;100.00
17525;BME280;40431;52.198;9.902;2022-12-07T06:06:46;100394.63;;;2.90;100.00
17525;BME280;40431;52.198;9.902;2022-12-07T06:09:13;100388.47;;;2.88;100.00
17525;BME280;40431;52.198;9.902;2022-12-07T06:11:40;100396.38;;;2.91;100.00
17525;BME280;40431;52.198;9.902;2022-12-07T06:14:26;100392.75;;;2.93;100.00
17525;BME280;40431;52.198;9.902;2022-12-07T06:16:52;100397.22;;;2.93;100.00
17525;BME280;40431;52.198;9.902;2022-12-07T06:19:19;100405.88;;;3.01;100.00
17525;BME280;40431;52.198;9.902;2022-12-07T06:21:46;100407.66;;;3.02;100.00
17525;BME280;40431;52.198;9.902;2022-12-07T06:24:13;100401.63;;;2.95;100.00
17525;BME280;40431;52.198;9.902;2022-12-07T06:26:40;100403.25;;;2.99;100.00
17525;BME280;40431;52.198;9.902;2022-12-07T06:29:07;100407.66;;;3.02;100.00
17525;BME280;40431;52.198;9.902;2022-12-07T06:31:36;100402.19;;;3.05;100.00
17525;BME280;40431;52.198;9.902;2022-12-07T06:34:05;100413.88;;;3.03;100.00
17525;BME280;40431;52.198;9.902;2022-12-07T06:36:31;100417.34;;;3.06;100.00
17525;BME280;40431;52.198;9.902;2022-12-07T06:38:58;100414.66;;;3.06;100.00
17525;BME280;40431;52.198;9.902;2022-12-07T06:41:25;100416.41;;;3.07;100.00
17525;BME280;40431;52.198;9.902;2022-12-07T06:43:51;100419.09;;;3.07;100.00
17525;BME280;40431;52.198;9.902;2022-12-07T06:46:18;100415.53;;;3.07;100.00
17525;BME280;40431;52.198;9.902;2022-12-07T06:48:46;100408.31;;;3.09;100.00
17525;BME280;40431;52.198;9.902;2022-12-07T06:51:13;100407.28;;;3.13;100.00
17525;BME280;40431;52.198;9.902;2022-12-07T06:53:40;100417.19;;;3.11;100.00
17525;BME280;40431;52.198;9.902;2022-12-07T06:56:07;100417.19;;;3.11;100.00
17525;BME280;40431;52.198;9.902;2022-12-07T06:58:33;100402.97;;;3.09;100.00
17525;BME280;40431;52.198;9.902;2022-12-07T07:01:00;100407.25;;;3.14;100.00
17525;BME280;40431;52.198;9.902;2022-12-07T07:03:27;100400.13;;;3.13;100.00
17525;BME280;40431;52.198;9.902;2022-12-07T07:05:55;100399.16;;;3.16;100.00
17525;BME280;40431;52.198;9.902;2022-12-07T07:08:21;100405.59;;;3.10;100.00
17525;BME280;40431;52.198;9.902;2022-12-07T07:10:48;100405.47;;;3.13;100.00
17525;BME280;40431;52.198;9.902;2022-12-07T07:13:15;100414.19;;;3.20;100.00
17525;BME280;40431;52.198;9.902;2022-12-07T07:15:41;100405.41;;;3.16;100.00
17525;BME280;40431;52.198;9.902;2022-12-07T07:18:08;100411.47;;;3.22;100.00
17525;BME280;40431;52.198;9.902;2022-12-07T07:20:37;100418.53;;;3.24;100.00
17525;BME280;40431;52.198;9.902;2022-12-07T07:23:05;100411.50;;;3.20;100.00
17525;BME280;40431;52.198;9.902;2022-12-07T07:25:32;100419.31;;;3.28;100.00
17525;BME280;40431;52.198;9.902;2022-12-07T07:27:59;100422.22;;;3.20;100.00
17525;BME280;40431;52.198;9.902;2022-12-07T07:30:26;100424.00;;;3.21;100.00
17525;BME280;40431;52.198;9.902;2022-12-07T07:32:56;100414.25;;;3.18;100.00
17525;BME280;40431;52.198;9.902;2022-12-07T07:35:22;100420.41;;;3.22;100.00
17525;BME280;40431;52.198;9.902;2022-12-07T07:37:49;100421.38;;;3.20;100.00
17525;BME280;40431;52.198;9.902;2022-12-07T07:40:17;100422.22;;;3.20;100.00
17525;BME280;40431;52.198;9.902;2022-12-07T07:42:47;100421.19;;;3.24;100.00
17525;BME280;40431;52.198;9.902;2022-12-07T07:45:13;100431.25;;;3.17;100.00
17525;BME280;40431;52.198;9.902;2022-12-07T07:47:40;100433.94;;;3.17;100.00
17525;BME280;40431;52.198;9.902;2022-12-07T07:50:08;100433.13;;;3.15;100.00
17525;BME280;40431;52.198;9.902;2022-12-07T07:52:35;100426.91;;;3.13;100.00
17525;BME280;40431;52.198;9.902;2022-12-07T07:55:01;100431.34;;;3.14;100.00
17525;BME280;40431;52.198;9.902;2022-12-07T07:57:29;100435.88;;;3.12;100.00
17525;BME280;40431;52.198;9.902;2022-12-07T07:59:56;100440.41;;;3.10;100.00
17525;BME280;40431;52.198;9.902;2022-12-07T08:02:23;100443.22;;;3.07;100.00
17525;BME280;40431;52.198;9.902;2022-12-07T08:04:49;100443.22;;;3.06;100.00
17525;BME280;40431;52.198;9.902;2022-12-07T08:07:16;100445.78;;;3.10;100.00
17525;BME280;40431;52.198;9.902;2022-12-07T08:09:42;100437.06;;;3.04;100.00
17525;BME280;40431;52.198;9.902;2022-12-07T08:12:09;100442.47;;;3.02;100.00
17525;BME280;40431;52.198;9.902;2022-12-07T08:14:37;100437.06;;;3.04;100.00
17525;BME280;40431;52.198;9.902;2022-12-07T08:17:04;100436.09;;;3.06;100.00
17525;BME280;40431;52.198;9.902;2022-12-07T08:19:31;100443.28;;;3.04;100.00
17525;BME280;40431;52.198;9.902;2022-12-07T08:21:57;100438.03;;;3.01;100.00
17525;BME280;40431;52.198;9.902;2022-12-07T08:24:24;100436.16;;;3.03;100.00
17525;BME280;40431;52.198;9.902;2022-12-07T08:26:51;100435.19;;;3.06;100.00
17525;BME280;40431;52.198;9.902;2022-12-07T08:29:18;100441.44;;;3.06;100.00
17525;BME280;40431;52.198;9.902;2022-12-07T08:31:46;100434.19;;;3.10;100.00
17525;BME280;40431;52.198;9.902;2022-12-07T08:34:13;100433.25;;;3.11;100.00
17525;BME280;40431;52.198;9.902;2022-12-07T08:36:40;100436.66;;;3.16;100.00
17525;BME280;40431;52.198;9.902;2022-12-07T08:39:06;100428.69;;;3.14;100.00
17525;BME280;40431;52.198;9.902;2022-12-07T08:41:33;100426.00;;;3.14;100.00
17525;BME280;40431;52.198;9.902;2022-12-07T08:44:00;100429.66;;;3.12;100.00
17525;BME280;40431;52.198;9.902;2022-12-07T08:46:30;100429.47;;;3.18;100.00
17525;BME280;40431;52.198;9.902;2022-12-07T08:49:03;100444.34;;;3.27;100.00
17525;BME280;40431;52.198;9.902;2022-12-07T08:51:31;100436.31;;;3.27;100.00
17525;BME280;40431;52.198;9.902;2022-12-07T08:53:58;100437.94;;;3.31;100.00
17525;BME280;40431;52.198;9.902;2022-12-07T08:56:27;100445.03;;;3.33;100.00
17525;BME280;40431;52.198;9.902;2022-12-07T08:58:54;100447.56;;;3.38;100.00
17525;BME280;40431;52.198;9.902;2022-12-07T09:01:21;100443.97;;;3.39;100.00
17525;BME280;40431;52.198;9.902;2022-12-07T09:03:47;100447.44;;;3.41;100.00
17525;BME280;40431;52.198;9.902;2022-12-07T09:06:15;100448.47;;;3.37;100.00
17525;BME280;40431;52.198;9.902;2022-12-07T09:08:45;100443.75;;;3.45;100.00
17525;BME280;40431;52.198;9.902;2022-12-07T09:11:13;100453.28;;;3.54;100.00
17525;BME280;40431;52.198;9.902;2022-12-07T09:13:40;100445.38;;;3.49;100.00
17525;BME280;40431;52.198;9.902;2022-12-07T09:16:06;100447.03;;;3.54;100.00
17525;BME280;40431;52.198;9.902;2022-12-07T09:18:33;100445.06;;;3.59;100.00
17525;BME280;40431;52.198;9.902;2022-12-07T09:21:00;100449.41;;;3.63;100.00
17525;BME280;40431;52.198;9.902;2022-12-07T09:23:28;100445.03;;;3.60;100.00
17525;BME280;40431;52.198;9.902;2022-12-07T09:25:54;100453.03;;;3.62;100.00
17525;BME280;40431;52.198;9.902;2022-12-07T09:28:21;100454.75;;;3.63;100.00
17525;BME280;40431;52.198;9.902;2022-12-07T09:30:48;100452.00;;;3.66;100.00
17525;BME280;40431;52.198;9.902;2022-12-07T09:33:15;100449.38;;;3.64;100.00
17525;BME280;40431;52.198;9.902;2022-12-07T09:35:44;100452.19;;;3.60;100.00
17525;BME280;40431;52.198;9.902;2022-12-07T09:38:11;100441.47;;;3.60;100.00
17525;BME280;40431;52.198;9.902;2022-12-07T09:40:39;100447.81;;;3.57;100.00
17525;BME280;40431;52.198;9.902;2022-12-07T09:43:12;100442.50;;;3.56;100.00
17525;BME280;40431;52.198;9.902;2022-12-07T09:45:40;100442.34;;;3.60;100.00
17525;BME280;40431;52.198;9.902;2022-12-07T09:48:14;100435.25;;;3.59;100.00
17525;BME280;40431;52.198;9.902;2022-12-07T09:50:42;100428.19;;;3.57;100.00
17525;BME280;40431;52.198;9.902;2022-12-07T09:53:14;100431.72;;;3.57;100.00
17525;BME280;40431;52.198;9.902;2022-12-07T09:55:43;100429.84;;;3.61;100.00
17525;BME280;40431;52.198;9.902;2022-12-07T09:58:17;100437.09;;;3.57;100.00
17525;BME280;40431;52.198;9.902;2022-12-07T10:00:45;100426.00;;;3.68;100.00
17525;BME280;40431;52.198;9.902;2022-12-07T10:03:12;100424.34;;;3.64;100.00
17525;BME280;40431;52.198;9.902;2022-12-07T10:05:41;100430.44;;;3.69;100.00
17525;BME280;40431;52.198;9.902;2022-12-07T10:08:11;100440.13;;;3.73;100.00
17525;BME280;40431;52.198;9.902;2022-12-07T10:10:39;100440.03;;;3.76;100.00
17525;BME280;40431;52.198;9.902;2022-12-07T10:13:10;100439.88;;;3.81;100.00
17525;BME280;40431;52.198;9.902;2022-12-07T10:15:48;100437.25;;;3.79;100.00
17525;BME280;40431;52.198;9.902;2022-12-07T10:18:27;100441.72;;;3.79;100.00
17525;BME280;40431;52.198;9.902;2022-12-07T10:21:06;100427.44;;;3.78;100.00
17525;BME280;40431;52.198;9.902;2022-12-07T10:23:58;100427.22;;;3.84;100.00
17525;BME280;40431;52.198;9.902;2022-12-07T10:26:30;100416.75;;;3.77;100.00
17525;BME280;40431;52.198;9.902;2022-12-07T10:29:02;100426.63;;;3.76;100.00
17525;BME280;40431;52.198;9.902;2022-12-07T10:31:53;100425.59;;;3.80;100.00
17525;BME280;40431;52.198;9.902;2022-12-07T10:34:34;100433.72;;;3.77;100.00
17525;BME280;40431;52.198;9.902;2022-12-07T10:37:16;100427.63;;;3.72;100.00
17525;BME280;40431;52.198;9.902;2022-12-07T10:39:46;100433.97;;;3.71;100.00
17525;BME280;40431;52.198;9.902;2022-12-07T10:42:20;100432.03;;;3.75;100.00
17525;BME280;40431;52.198;9.902;2022-12-07T10:45:13;100430.31;;;3.72;100.00
17525;BME280;40431;52.198;9.902;2022-12-07T10:47:48;100423.22;;;3.71;100.00
17525;BME280;40431;52.198;9.902;2022-12-07T10:50:43;100416.09;;;3.70;100.00
17525;BME280;40431;52.198;9.902;2022-12-07T10:53:41;100422.28;;;3.72;100.00
17525;BME280;40431;52.198;9.902;2022-12-07T11:02:59;100415.00;;;3.76;100.00
17525;BME280;40431;52.198;9.902;2022-12-07T11:05:42;100413.31;;;3.73;100.00
17525;BME280;40431;52.198;9.902;2022-12-07T11:08:34;100407.63;;;3.82;100.00
17525;BME280;40431;52.198;9.902;2022-12-07T11:11:16;100407.78;;;3.78;100.00
17525;BME280;40431;52.198;9.902;2022-12-07T11:13:51;100407.50;;;3.85;100.00
17525;BME280;40431;52.198;9.902;2022-12-07T11:16:26;100403.88;;;3.87;100.00
17525;BME280;40431;52.198;9.902;2022-12-07T11:19:23;100405.44;;;3.94;100.00
17525;BME280;40431;52.198;9.902;2022-12-07T11:21:59;100405.25;;;3.98;100.00
17525;BME280;40431;52.198;9.902;2022-12-07T11:24:35;100399.69;;;4.05;100.00
17525;BME280;40431;52.198;9.902;2022-12-07T11:27:15;100394.97;;;4.11;100.00
17525;BME280;40431;52.198;9.902;2022-12-07T11:29:57;100396.94;;;4.06;100.00
17525;BME280;40431;52.198;9.902;2022-12-07T11:32:44;100393.97;;;4.14;100.00
17525;BME280;40431;52.198;9.902;2022-12-07T11:35:24;100394.06;;;4.11;100.00
17525;BME280;40431;52.198;9.902;2022-12-07T11:38:01;100389.47;;;4.14;100.00
17525;BME280;40431;52.198;9.902;2022-12-07T11:40:36;100376.97;;;4.13;100.00
17525;BME280;40431;52.198;9.902;2022-12-07T11:43:19;100384.22;;;4.11;100.00
17525;BME280;40431;52.198;9.902;2022-12-07T11:46:06;100377.75;;;4.17;100.00
17525;BME280;40431;52.198;9.902;2022-12-07T11:48:45;100376.88;;;4.16;100.00
17525;BME280;40431;52.198;9.902;2022-12-07T11:51:29;100368.91;;;4.15;100.00
17525;BME280;40431;52.198;9.902;2022-12-07T11:54:05;100366.88;;;4.20;100.00
17525;BME280;40431;52.198;9.902;2022-12-07T11:56:46;100359.88;;;4.17;100.00
17525;BME280;40431;52.198;9.902;2022-12-07T11:59:23;100356.47;;;4.12;100.00
17525;BME280;40431;52.198;9.902;2022-12-07T12:01:57;100345.78;;;4.11;100.00
17525;BME280;40431;52.198;9.902;2022-12-07T12:04:35;100359.03;;;4.15;100.00
17525;BME280;40431;52.198;9.902;2022-12-07T12:07:15;100352.72;;;4.16;100.00
17525;BME280;40431;52.198;9.902;2022-12-07T12:09:51;100352.72;;;4.16;100.00
17525;BME280;40431;52.198;9.902;2022-12-07T12:12:52;100350.06;;;4.16;100.00
17525;BME280;40431;52.198;9.902;2022-12-07T12:15:33;100349.50;;;4.07;100.00
17525;BME280;40431;52.198;9.902;2022-12-07T12:20:56;100355.75;;;4.07;100.00
17525;BME280;40431;52.198;9.902;2022-12-07T12:23:35;100354.88;;;4.07;100.00
17525;BME280;40431;52.198;9.902;2022-12-07T12:26:12;100344.84;;;4.12;100.00
17525;BME280;40431;52.198;9.902;2022-12-07T12:28:53;100348.63;;;4.06;100.00
17525;BME280;40431;52.198;9.902;2022-12-07T12:31:40;100343.50;;;4.00;100.00
17525;BME280;40431;52.198;9.902;2022-12-07T12:34:37;100336.44;;;3.97;100.00
17525;BME280;40431;52.198;9.902;2022-12-07T12:37:43;100342.56;;;4.01;100.00
17525;BME280;40431;52.198;9.902;2022-12-07T12:40:44;100339.66;;;4.07;100.00
17525;BME280;40431;52.198;9.902;2022-12-07T12:46:49;100334.03;;;4.13;100.00
17525;BME280;40431;52.198;9.902;2022-12-07T12:49:54;100330.09;;;4.24;100.00
17525;BME280;40431;52.198;9.902;2022-12-07T12:53:03;100332.19;;;4.39;100.00
17525;BME280;40431;52.198;9.902;2022-12-07T12:58:42;100316.50;;;4.50;100.00
17525;BME280;40431;52.198;9.902;2022-12-07T13:01:45;100311.84;;;4.56;100.00
17525;BME280;40431;52.198;9.902;2022-12-07T13:04:39;100298.41;;;4.56;100.00
17525;BME280;40431;52.198;9.902;2022-12-07T13:07:13;100305.41;;;4.60;100.00
17525;BME280;40431;52.198;9.902;2022-12-07T13:09:47;100307.16;;;4.61;100.00
17525;BME280;40431;52.198;9.902;2022-12-07T13:12:20;100305.31;;;4.63;100.00
17525;BME280;40431;52.198;9.902;2022-12-07T13:14:57;100302.72;;;4.60;100.00
17525;BME280;40431;52.198;9.902;2022-12-07T13:18:03;100296.84;;;4.50;100.00
17525;BME280;40431;52.198;9.902;2022-12-07T13:20:48;100302.41;;;4.45;100.00
17525;BME280;40431;52.198;9.902;2022-12-07T13:23:31;100314.88;;;4.46;100.00
17525;BME280;40431;52.198;9.902;2022-12-07T13:26:09;100315.78;;;4.47;100.00
17525;BME280;40431;52.198;9.902;2022-12-07T13:29:03;100299.66;;;4.47;100.00
17525;BME280;40431;52.198;9.902;2022-12-07T13:31:42;100301.38;;;4.49;100.00
17525;BME280;40431;52.198;9.902;2022-12-07T13:34:33;100300.66;;;4.44;100.00
17525;BME280;40431;52.198;9.902;2022-12-07T13:37:12;100295.28;;;4.44;100.00
17525;BME280;40431;52.198;9.902;2022-12-07T13:39:52;100305.16;;;4.44;100.00
17525;BME280;40431;52.198;9.902;2022-12-07T13:42:26;100304.28;;;4.43;100.00